sensor_id;sensor_type;location;lat;lon;timestamp;pressure;altitude;pressure_sealevel;temperature;humidity
11621;BME280;5866;49.094;11.900;2022-09-09T00:00:38;95963.94;;;15.53;100.00
11621;BME280;5866;49.094;11.900;2022-09-09T00:03:12;95972.03;;;15.66;100.00
11621;BME280;5866;49.094;11.900;2022-09-09T00:05:51;95973.28;;;15.70;100.00
11621;BME280;5866;49.094;11.900;2022-09-09T00:08:33;95968.78;;;15.77;100.00
11621;BME280;5866;49.094;11.900;2022-09-09T00:11:05;95968.13;;;15.68;100.00
11621;BME280;5866;49.094;11.900;2022-09-09T00:13:37;95976.97;;;15.69;100.00
11621;BME280;5866;49.094;11.900;2022-09-09T00:16:12;95971.78;;;15.61;100.00
11621;BME280;5866;49.094;11.900;2022-09-09T00:18:52;95970.41;;;15.78;100.00
11621;BME280;5866;49.094;11.900;2022-09-09T00:21:26;95965.09;;;15.84;100.00
11621;BME280;5866;49.094;11.900;2022-09-09T00:23:58;95965.06;;;15.78;100.00
11621;BME280;5866;49.094;11.900;2022-09-09T00:26:35;95958.28;;;15.82;100.00
11621;BME280;5866;49.094;11.900;2022-09-09T00:29:11;95966.31;;;15.82;100.00
11621;BME280;5866;49.094;11.900;2022-09-09T00:31:41;95955.00;;;15.80;100.00
11621;BME280;5866;49.094;11.900;2022-09-09T00:34:12;95956.47;;;15.89;100.00
11621;BME280;5866;49.094;11.900;2022-09-09T00:36:42;95949.44;;;15.81;100.00
11621;BME280;5866;49.094;11.900;2022-09-09T00:39:16;95955.66;;;15.95;100.00
11621;BME280;5866;49.094;11.900;2022-09-09T00:42:02;95956.69;;;16.01;100.00
11621;BME280;5866;49.094;11.900;2022-09-09T00:44:37;95955.28;;;16.05;100.00
11621;BME280;5866;49.094;11.900;2022-09-09T00:47:18;95962.94;;;16.14;100.00
11621;BME280;5866;49.094;11.900;2022-09-09T00:50:00;95956.16;;;16.31;100.00
11621;BME280;5866;49.094;11.900;2022-09-09T00:52:36;95958.22;;;16.29;100.00
11621;BME280;5866;49.094;11.900;2022-09-09T00:55:14;95967.06;;;16.36;100.00
11621;BME280;5866;49.094;11.900;2022-09-09T00:57:46;95966.47;;;16.41;100.00
11621;BME280;5866;49.094;11.900;2022-09-09T01:00:22;95967.88;;;16.30;100.00
11621;BME280;5866;49.094;11.900;2022-09-09T01:03:06;95969.81;;;16.62;100.00
11621;BME280;5866;49.094;11.900;2022-09-09T01:05:44;95976.69;;;16.11;100.00
11621;BME280;5866;49.094;11.900;2022-09-09T01:08:26;95979.28;;;16.58;100.00
11621;BME280;5866;49.094;11.900;2022-09-09T01:11:00;95974.34;;;16.75;100.00
11621;BME280;5866;49.094;11.900;2022-09-09T01:13:30;95991.25;;;16.62;100.00
11621;BME280;5866;49.094;11.900;2022-09-09T01:16:01;95981.34;;;16.69;100.00
11621;BME280;5866;49.094;11.900;2022-09-09T01:18:33;95964.47;;;16.69;100.00
11621;BME280;5866;49.094;11.900;2022-09-09T01:21:07;95977.22;;;16.74;100.00
11621;BME280;5866;49.094;11.900;2022-09-09T01:23:54;95973.69;;;17.19;100.00
11621;BME280;5866;49.094;11.900;2022-09-09T01:26:30;95961.66;;;17.41;100.00
11621;BME280;5866;49.094;11.900;2022-09-09T01:28:59;95959.13;;;17.72;100.00
11621;BME280;5866;49.094;11.900;2022-09-09T01:31:29;95965.25;;;17.92;100.00
11621;BME280;5866;49.094;11.900;2022-09-09T01:33:58;95960.41;;;18.07;100.00
11621;BME280;5866;49.094;11.900;2022-09-09T01:36:31;95959.94;;;17.73;100.00
11621;BME280;5866;49.094;11.900;2022-09-09T01:39:01;95962.28;;;17.56;100.00
11621;BME280;5866;49.094;11.900;2022-09-09T01:41:30;95949.50;;;17.52;100.00
11621;BME280;5866;49.094;11.900;2022-09-09T01:43:58;95956.13;;;17.36;100.00
11621;BME280;5866;49.094;11.900;2022-09-09T01:46:27;95953.63;;;17.54;100.00
11621;BME280;5866;49.094;11.900;2022-09-09T01:48:57;95958.34;;;17.65;100.00
11621;BME280;5866;49.094;11.900;2022-09-09T01:51:26;95956.50;;;17.66;100.00
11621;BME280;5866;49.094;11.900;2022-09-09T01:53:54;95964.44;;;17.85;100.00
11621;BME280;5866;49.094;11.900;2022-09-09T01:56:33;95962.97;;;17.89;100.00
11621;BME280;5866;49.094;11.900;2022-09-09T01:59:18;95962.06;;;18.08;100.00
11621;BME280;5866;49.094;11.900;2022-09-09T02:02:01;95957.50;;;18.09;100.00
11621;BME280;5866;49.094;11.900;2022-09-09T02:04:37;95957.13;;;18.05;100.00
11621;BME280;5866;49.094;11.900;2022-09-09T02:07:14;95956.72;;;18.02;100.00
11621;BME280;5866;49.094;11.900;2022-09-09T02:09:51;95955.59;;;17.78;100.00
11621;BME280;5866;49.094;11.900;2022-09-09T02:12:25;95952.41;;;17.50;100.00
11621;BME280;5866;49.094;11.900;2022-09-09T02:14:56;95960.31;;;17.06;100.00
11621;BME280;5866;49.094;11.900;2022-09-09T02:17:30;95957.44;;;16.88;100.00
11621;BME280;5866;49.094;11.900;2022-09-09T02:20:04;95959.28;;;16.61;100.00
11621;BME280;5866;49.094;11.900;2022-09-09T02:22:35;95960.31;;;16.53;100.00
11621;BME280;5866;49.094;11.900;2022-09-09T02:25:08;95958.66;;;16.59;100.00
11621;BME280;5866;49.094;11.900;2022-09-09T02:27:40;95956.63;;;16.74;100.00
11621;BME280;5866;49.094;11.900;2022-09-09T02:30:09;95958.06;;;16.57;100.00
11621;BME280;5866;49.094;11.900;2022-09-09T02:32:38;95956.22;;;16.64;100.00
11621;BME280;5866;49.094;11.900;2022-09-09T02:35:10;95955.38;;;16.77;100.00
11621;BME280;5866;49.094;11.900;2022-09-09T02:37:42;95959.28;;;16.81;100.00
11621;BME280;5866;49.094;11.900;2022-09-09T02:40:13;95956.19;;;16.97;100.00
11621;BME280;5866;49.094;11.900;2022-09-09T02:42:45;95950.22;;;17.01;100.00
11621;BME280;5866;49.094;11.900;2022-09-09T02:45:15;95951.66;;;17.04;100.00
11621;BME280;5866;49.094;11.900;2022-09-09T02:47:49;95952.09;;;17.01;100.00
11621;BME280;5866;49.094;11.900;2022-09-09T02:50:20;95949.59;;;17.06;100.00
11621;BME280;5866;49.094;11.900;2022-09-09T02:52:59;95945.50;;;16.84;100.00
11621;BME280;5866;49.094;11.900;2022-09-09T02:55:37;95956.22;;;16.57;100.00
11621;BME280;5866;49.094;11.900;2022-09-09T02:58:08;95947.34;;;16.63;100.00
11621;BME280;5866;49.094;11.900;2022-09-09T03:00:39;95945.72;;;16.76;100.00
11621;BME280;5866;49.094;11.900;2022-09-09T03:03:07;95944.69;;;16.77;100.00
11621;BME280;5866;49.094;11.900;2022-09-09T03:05:36;95942.22;;;16.68;100.00
11621;BME280;5866;49.094;11.900;2022-09-09T03:08:04;95948.19;;;16.90;100.00
11621;BME280;5866;49.094;11.900;2022-09-09T03:10:32;95944.69;;;16.50;100.00
11621;BME280;5866;49.094;11.900;2022-09-09T03:13:01;95949.22;;;16.56;100.00
11621;BME280;5866;49.094;11.900;2022-09-09T03:15:30;95944.69;;;16.50;100.00
11621;BME280;5866;49.094;11.900;2022-09-09T03:17:58;95941.38;;;16.68;100.00
11621;BME280;5866;49.094;11.900;2022-09-09T03:20:27;95946.72;;;16.88;100.00
11621;BME280;5866;49.094;11.900;2022-09-09T03:22:56;95947.13;;;16.78;100.00
11621;BME280;5866;49.094;11.900;2022-09-09T03:25:24;95944.66;;;16.96;100.00
11621;BME280;5866;49.094;11.900;2022-09-09T03:27:52;95950.44;;;16.80;100.00
11621;BME280;5866;49.094;11.900;2022-09-09T03:30:21;95948.56;;;16.41;100.00
11621;BME280;5866;49.094;11.900;2022-09-09T03:32:50;95951.63;;;16.25;100.00
11621;BME280;5866;49.094;11.900;2022-09-09T03:35:18;95957.19;;;16.30;100.00
11621;BME280;5866;49.094;11.900;2022-09-09T03:37:46;95965.19;;;16.11;100.00
11621;BME280;5866;49.094;11.900;2022-09-09T03:40:14;95959.56;;;15.93;100.00
11621;BME280;5866;49.094;11.900;2022-09-09T03:42:42;95961.41;;;15.85;100.00
11621;BME280;5866;49.094;11.900;2022-09-09T03:45:09;95955.63;;;15.82;100.00
11621;BME280;5866;49.094;11.900;2022-09-09T03:47:37;95953.16;;;15.80;100.00
11621;BME280;5866;49.094;11.900;2022-09-09T03:50:07;95957.31;;;15.96;100.00
11621;BME280;5866;49.094;11.900;2022-09-09T03:52:35;95960.91;;;16.29;100.00
11621;BME280;5866;49.094;11.900;2022-09-09T03:55:04;95961.94;;;16.41;100.00
11621;BME280;5866;49.094;11.900;2022-09-09T03:57:32;95957.59;;;16.27;100.00
11621;BME280;5866;49.094;11.900;2022-09-09T04:00:02;95953.25;;;16.26;100.00
11621;BME280;5866;49.094;11.900;2022-09-09T04:02:30;95960.25;;;16.21;100.00
11621;BME280;5866;49.094;11.900;2022-09-09T04:04:57;95957.50;;;15.95;100.00
11621;BME280;5866;49.094;11.900;2022-09-09T04:07:27;95963.03;;;15.80;100.00
11621;BME280;5866;49.094;11.900;2022-09-09T04:09:54;95964.28;;;15.90;100.00
11621;BME280;5866;49.094;11.900;2022-09-09T04:12:22;95962.88;;;15.95;100.00
11621;BME280;5866;49.094;11.900;2022-09-09T04:14:49;95963.53;;;16.16;100.00
11621;BME280;5866;49.094;11.900;2022-09-09T04:17:17;95960.91;;;16.29;100.00
11621;BME280;5866;49.094;11.900;2022-09-09T04:19:44;95955.72;;;16.15;100.00
11621;BME280;5866;49.094;11.900;2022-09-09T04:22:12;95958.34;;;15.95;100.00
11621;BME280;5866;49.094;11.900;2022-09-09T04:24:41;95960.78;;;15.90;100.00
11621;BME280;5866;49.094;11.900;2022-09-09T04:27:14;95958.63;;;16.26;100.00
11621;BME280;5866;49.094;11.900;2022-09-09T04:29:41;95961.31;;;16.39;100.00
11621;BME280;5866;49.094;11.900;2022-09-09T04:32:09;95961.94;;;16.41;100.00
11621;BME280;5866;49.094;11.900;2022-09-09T04:34:36;95956.34;;;16.30;100.00
11621;BME280;5866;49.094;11.900;2022-09-09T04:37:03;95960.09;;;16.42;100.00
11621;BME280;5866;49.094;11.900;2022-09-09T04:39:31;95957.81;;;16.32;100.00
11621;BME280;5866;49.094;11.900;2022-09-09T04:42:00;95954.97;;;16.66;100.00
11621;BME280;5866;49.094;11.900;2022-09-09T04:44:28;95955.16;;;16.72;100.00
11621;BME280;5866;49.094;11.900;2022-09-09T04:46:56;95945.69;;;16.82;100.00
11621;BME280;5866;49.094;11.900;2022-09-09T04:49:24;95936.19;;;17.06;100.00
11621;BME280;5866;49.094;11.900;2022-09-09T04:51:52;95940.16;;;16.84;100.00
11621;BME280;5866;49.094;11.900;2022-09-09T04:54:19;95935.41;;;16.86;100.00
11621;BME280;5866;49.094;11.900;2022-09-09T04:56:47;95931.66;;;17.00;100.00
11621;BME280;5866;49.094;11.900;2022-09-09T04:59:18;95937.03;;;17.06;100.00
11621;BME280;5866;49.094;11.900;2022-09-09T05:01:45;95939.31;;;16.90;100.00
11621;BME280;5866;49.094;11.900;2022-09-09T05:04:13;95929.63;;;16.89;100.00
11621;BME280;5866;49.094;11.900;2022-09-09T05:06:41;95935.19;;;16.81;100.00
11621;BME280;5866;49.094;11.900;2022-09-09T05:09:09;95936.41;;;17.11;100.00
11621;BME280;5866;49.094;11.900;2022-09-09T05:11:36;95933.84;;;17.35;100.00
11621;BME280;5866;49.094;11.900;2022-09-09T05:14:04;95934.69;;;17.29;100.00
11621;BME280;5866;49.094;11.900;2022-09-09T05:16:33;95931.63;;;17.19;100.00
11621;BME280;5866;49.094;11.900;2022-09-09T05:19:00;95940.91;;;17.17;100.00
11621;BME280;5866;49.094;11.900;2022-09-09T05:21:29;95936.25;;;16.80;100.00
11621;BME280;5866;49.094;11.900;2022-09-09T05:23:57;95942.16;;;16.95;100.00
11621;BME280;5866;49.094;11.900;2022-09-09T05:26:26;95947.97;;;16.85;100.00
11621;BME280;5866;49.094;11.900;2022-09-09T05:28:55;95947.97;;;16.85;100.00
11621;BME280;5866;49.094;11.900;2022-09-09T05:31:23;95952.03;;;17.27;100.00
11621;BME280;5866;49.094;11.900;2022-09-09T05:33:55;95948.66;;;17.51;100.00
11621;BME280;5866;49.094;11.900;2022-09-09T05:36:23;95960.22;;;17.52;100.00
11621;BME280;5866;49.094;11.900;2022-09-09T05:38:50;95961.03;;;17.59;100.00
11621;BME280;5866;49.094;11.900;2022-09-09T05:41:20;95964.56;;;17.53;100.00
11621;BME280;5866;49.094;11.900;2022-09-09T05:43:49;95966.88;;;17.23;100.00
11621;BME280;5866;49.094;11.900;2022-09-09T05:46:18;95972.25;;;17.16;100.00
11621;BME280;5866;49.094;11.900;2022-09-09T05:48:47;95981.34;;;17.09;100.00
11621;BME280;5866;49.094;11.900;2022-09-09T05:51:20;95978.66;;;16.96;100.00
11621;BME280;5866;49.094;11.900;2022-09-09T05:53:48;95988.97;;;16.59;100.00
11621;BME280;5866;49.094;11.900;2022-09-09T05:56:18;95991.25;;;16.62;100.00
11621;BME280;5866;49.094;11.900;2022-09-09T05:58:46;95986.09;;;16.81;100.00
11621;BME280;5866;49.094;11.900;2022-09-09T06:01:16;95992.06;;;16.89;100.00
11621;BME280;5866;49.094;11.900;2022-09-09T06:03:46;95985.69;;;16.90;100.00
11621;BME280;5866;49.094;11.900;2022-09-09T06:06:15;95985.88;;;16.89;100.00
11621;BME280;5866;49.094;11.900;2022-09-09T06:08:45;95989.38;;;16.69;100.00
11621;BME280;5866;49.094;11.900;2022-09-09T06:11:14;95989.56;;;16.55;100.00
11621;BME280;5866;49.094;11.900;2022-09-09T06:13:42;95992.41;;;16.40;100.00
11621;BME280;5866;49.094;11.900;2022-09-09T06:16:12;95989.91;;;16.26;100.00
11621;BME280;5866;49.094;11.900;2022-09-09T06:18:40;95991.16;;;16.23;100.00
11621;BME280;5866;49.094;11.900;2022-09-09T06:21:15;95991.19;;;16.43;100.00
11621;BME280;5866;49.094;11.900;2022-09-09T06:23:45;95987.94;;;16.60;100.00
11621;BME280;5866;49.094;11.900;2022-09-09T06:26:15;95986.69;;;16.69;100.00
11621;BME280;5866;49.094;11.900;2022-09-09T06:28:44;95992.84;;;17.29;100.00
11621;BME280;5866;49.094;11.900;2022-09-09T06:31:13;95994.91;;;17.27;100.00
11621;BME280;5866;49.094;11.900;2022-09-09T06:33:41;95987.00;;;17.65;100.00
11621;BME280;5866;49.094;11.900;2022-09-09T06:36:11;95992.59;;;17.63;100.00
11621;BME280;5866;49.094;11.900;2022-09-09T06:38:39;95992.31;;;17.84;100.00
11621;BME280;5866;49.094;11.900;2022-09-09T06:41:09;95995.19;;;17.83;100.00
11621;BME280;5866;49.094;11.900;2022-09-09T06:43:37;95988.00;;;17.70;100.00
11621;BME280;5866;49.094;11.900;2022-09-09T06:46:06;95990.84;;;17.88;100.00
11621;BME280;5866;49.094;11.900;2022-09-09T06:48:34;95987.63;;;18.55;100.00
11621;BME280;5866;49.094;11.900;2022-09-09T06:51:04;95981.09;;;19.19;100.00
11621;BME280;5866;49.094;11.900;2022-09-09T06:53:32;95996.13;;;20.53;100.00
11621;BME280;5866;49.094;11.900;2022-09-09T06:56:00;95990.56;;;22.28;100.00
11621;BME280;5866;49.094;11.900;2022-09-09T06:58:30;95992.00;;;22.75;98.00
11621;BME280;5866;49.094;11.900;2022-09-09T07:01:02;95992.78;;;23.21;91.51
11621;BME280;5866;49.094;11.900;2022-09-09T07:03:31;95995.78;;;24.12;81.75
11621;BME280;5866;49.094;11.900;2022-09-09T07:05:59;95990.91;;;24.58;73.54
11621;BME280;5866;49.094;11.900;2022-09-09T07:08:27;95997.78;;;24.00;74.67
11621;BME280;5866;49.094;11.900;2022-09-09T07:11:02;96001.72;;;23.71;74.69
11621;BME280;5866;49.094;11.900;2022-09-09T07:13:38;96008.59;;;22.96;78.32
11621;BME280;5866;49.094;11.900;2022-09-09T07:16:07;96002.91;;;22.52;81.22
11621;BME280;5866;49.094;11.900;2022-09-09T07:18:36;96003.47;;;22.26;85.35
11621;BME280;5866;49.094;11.900;2022-09-09T07:21:03;96001.13;;;21.55;90.66
11621;BME280;5866;49.094;11.900;2022-09-09T07:23:32;96009.16;;;20.56;99.05
11621;BME280;5866;49.094;11.900;2022-09-09T07:26:02;96001.84;;;20.45;100.00
11621;BME280;5866;49.094;11.900;2022-09-09T07:28:30;96003.97;;;20.25;100.00
11621;BME280;5866;49.094;11.900;2022-09-09T07:31:00;96006.91;;;19.87;100.00
11621;BME280;5866;49.094;11.900;2022-09-09T07:33:30;96016.25;;;19.66;100.00
11621;BME280;5866;49.094;11.900;2022-09-09T07:36:03;96020.78;;;19.23;100.00
11621;BME280;5866;49.094;11.900;2022-09-09T07:38:32;96021.56;;;19.06;100.00
11621;BME280;5866;49.094;11.900;2022-09-09T07:41:04;96021.94;;;18.84;100.00
11621;BME280;5866;49.094;11.900;2022-09-09T07:43:33;96020.69;;;18.87;100.00
11621;BME280;5866;49.094;11.900;2022-09-09T07:46:01;96022.94;;;18.59;100.00
11621;BME280;5866;49.094;11.900;2022-09-09T07:48:29;96032.03;;;18.58;100.00
11621;BME280;5866;49.094;11.900;2022-09-09T07:51:08;96043.06;;;18.37;100.00
11621;BME280;5866;49.094;11.900;2022-09-09T07:53:37;96042.59;;;18.53;100.00
11621;BME280;5866;49.094;11.900;2022-09-09T07:56:06;96049.19;;;18.88;100.00
11621;BME280;5866;49.094;11.900;2022-09-09T07:58:35;96056.16;;;18.64;100.00
11621;BME280;5866;49.094;11.900;2022-09-09T08:01:10;96045.91;;;18.86;100.00
11621;BME280;5866;49.094;11.900;2022-09-09T08:03:38;96046.72;;;18.86;100.00
11621;BME280;5866;49.094;11.900;2022-09-09T08:06:08;96054.13;;;18.60;100.00
11621;BME280;5866;49.094;11.900;2022-09-09T08:08:36;96056.03;;;18.53;100.00
11621;BME280;5866;49.094;11.900;2022-09-09T08:11:06;96060.28;;;18.67;100.00
11621;BME280;5866;49.094;11.900;2022-09-09T08:13:36;96055.25;;;18.77;100.00
11621;BME280;5866;49.094;11.900;2022-09-09T08:16:05;96053.94;;;18.55;100.00
11621;BME280;5866;49.094;11.900;2022-09-09T08:18:35;96050.94;;;18.76;100.00
11621;BME280;5866;49.094;11.900;2022-09-09T08:21:07;96046.38;;;18.76;100.00
11621;BME280;5866;49.094;11.900;2022-09-09T08:23:36;96048.09;;;18.64;100.00
11621;BME280;5866;49.094;11.900;2022-09-09T08:26:05;96057.44;;;18.93;100.00
11621;BME280;5866;49.094;11.900;2022-09-09T08:28:32;96054.25;;;19.02;100.00
11621;BME280;5866;49.094;11.900;2022-09-09T08:31:08;96059.19;;;19.30;100.00
11621;BME280;5866;49.094;11.900;2022-09-09T08:33:38;96060.44;;;20.13;100.00
11621;BME280;5866;49.094;11.900;2022-09-09T08:36:09;96057.19;;;21.30;100.00
11621;BME280;5866;49.094;11.900;2022-09-09T08:38:37;96058.63;;;21.44;100.00
11621;BME280;5866;49.094;11.900;2022-09-09T08:41:28;96065.91;;;21.78;100.00
11621;BME280;5866;49.094;11.900;2022-09-09T08:44:06;96057.31;;;22.16;100.00
11621;BME280;5866;49.094;11.900;2022-09-09T08:46:42;96066.03;;;21.95;100.00
11621;BME280;5866;49.094;11.900;2022-09-09T08:49:28;96066.25;;;22.68;92.73
11621;BME280;5866;49.094;11.900;2022-09-09T08:51:59;96056.31;;;23.02;87.99
11621;BME280;5866;49.094;11.900;2022-09-09T08:54:31;96055.25;;;23.03;83.01
11621;BME280;5866;49.094;11.900;2022-09-09T08:57:21;96052.41;;;23.26;80.56
11621;BME280;5866;49.094;11.900;2022-09-09T08:59:54;96062.84;;;23.67;76.64
11621;BME280;5866;49.094;11.900;2022-09-09T09:02:25;96068.00;;;23.85;77.39
11621;BME280;5866;49.094;11.900;2022-09-09T09:05:07;96066.69;;;23.38;76.88
11621;BME280;5866;49.094;11.900;2022-09-09T09:07:47;96062.38;;;23.37;79.23
11621;BME280;5866;49.094;11.900;2022-09-09T09:10:28;96068.34;;;22.94;83.60
11621;BME280;5866;49.094;11.900;2022-09-09T09:13:14;96061.03;;;22.78;82.95
11621;BME280;5866;49.094;11.900;2022-09-09T09:15:44;96065.31;;;22.90;83.03
11621;BME280;5866;49.094;11.900;2022-09-09T09:18:15;96076.00;;;22.57;83.52
11621;BME280;5866;49.094;11.900;2022-09-09T09:20:50;96060.97;;;22.50;85.85
11621;BME280;5866;49.094;11.900;2022-09-09T09:23:23;96060.16;;;23.34;78.26
11621;BME280;5866;49.094;11.900;2022-09-09T09:25:55;96059.72;;;23.92;73.76
11621;BME280;5866;49.094;11.900;2022-09-09T09:28:27;96058.16;;;23.79;77.70
11621;BME280;5866;49.094;11.900;2022-09-09T09:30:58;96058.06;;;23.91;75.43
11621;BME280;5866;49.094;11.900;2022-09-09T09:33:33;96053.09;;;23.66;73.68
11621;BME280;5866;49.094;11.900;2022-09-09T09:36:04;96049.41;;;23.55;73.96
11621;BME280;5866;49.094;11.900;2022-09-09T09:38:35;96048.75;;;23.48;74.52
11621;BME280;5866;49.094;11.900;2022-09-09T09:41:31;96044.38;;;23.31;78.02
11621;BME280;5866;49.094;11.900;2022-09-09T09:43:58;96040.75;;;23.09;77.75
11621;BME280;5866;49.094;11.900;2022-09-09T09:46:28;96043.13;;;23.22;78.04
11621;BME280;5866;49.094;11.900;2022-09-09T09:49:00;96033.25;;;22.82;80.67
11621;BME280;5866;49.094;11.900;2022-09-09T09:51:31;96031.78;;;22.91;78.25
11621;BME280;5866;49.094;11.900;2022-09-09T09:54:22;96029.31;;;23.35;79.83
11621;BME280;5866;49.094;11.900;2022-09-09T09:56:53;96036.31;;;23.19;76.13
11621;BME280;5866;49.094;11.900;2022-09-09T09:59:23;96040.88;;;22.85;83.20
11621;BME280;5866;49.094;11.900;2022-09-09T10:02:15;96049.72;;;22.41;96.49
11621;BME280;5866;49.094;11.900;2022-09-09T10:04:43;96043.09;;;22.60;96.28
11621;BME280;5866;49.094;11.900;2022-09-09T10:07:17;96048.97;;;22.57;94.82
11621;BME280;5866;49.094;11.900;2022-09-09T10:09:46;96042.53;;;22.07;94.14
11621;BME280;5866;49.094;11.900;2022-09-09T10:12:25;96039.66;;;22.25;96.87
11621;BME280;5866;49.094;11.900;2022-09-09T10:15:02;96043.91;;;23.34;84.43
11621;BME280;5866;49.094;11.900;2022-09-09T10:17:36;96039.41;;;23.94;78.29
11621;BME280;5866;49.094;11.900;2022-09-09T10:20:21;96035.16;;;23.98;71.12
11621;BME280;5866;49.094;11.900;2022-09-09T10:22:56;96033.22;;;24.59;69.32
11621;BME280;5866;49.094;11.900;2022-09-09T10:25:33;96026.72;;;24.60;60.42
11621;BME280;5866;49.094;11.900;2022-09-09T10:28:24;96032.66;;;25.37;59.19
11621;BME280;5866;49.094;11.900;2022-09-09T10:31:00;96032.63;;;26.57;54.77
11621;BME280;5866;49.094;11.900;2022-09-09T10:33:35;96025.75;;;27.46;52.66
11621;BME280;5866;49.094;11.900;2022-09-09T10:36:12;96026.53;;;27.22;52.63
11621;BME280;5866;49.094;11.900;2022-09-09T10:38:42;96029.00;;;27.28;49.98
11621;BME280;5866;49.094;11.900;2022-09-09T10:41:32;96020.28;;;27.92;48.82
11621;BME280;5866;49.094;11.900;2022-09-09T10:44:17;96018.16;;;27.59;47.89
11621;BME280;5866;49.094;11.900;2022-09-09T10:47:00;96026.28;;;27.94;49.26
11621;BME280;5866;49.094;11.900;2022-09-09T10:49:57;96012.81;;;28.91;46.63
11621;BME280;5866;49.094;11.900;2022-09-09T10:52:32;96021.31;;;28.90;46.86
11621;BME280;5866;49.094;11.900;2022-09-09T10:55:10;96013.50;;;28.73;45.31
11621;BME280;5866;49.094;11.900;2022-09-09T10:57:41;96009.44;;;29.48;45.47
11621;BME280;5866;49.094;11.900;2022-09-09T11:00:16;96008.19;;;29.36;44.36
11621;BME280;5866;49.094;11.900;2022-09-09T11:02:44;96010.47;;;29.24;46.45
11621;BME280;5866;49.094;11.900;2022-09-09T11:05:17;96015.88;;;28.85;45.02
11621;BME280;5866;49.094;11.900;2022-09-09T11:07:49;96013.78;;;27.63;47.52
11621;BME280;5866;49.094;11.900;2022-09-09T11:10:24;96012.66;;;27.18;48.56
11621;BME280;5866;49.094;11.900;2022-09-09T11:12:57;96006.44;;;27.48;47.80
11621;BME280;5866;49.094;11.900;2022-09-09T11:15:30;96016.75;;;27.21;48.73
11621;BME280;5866;49.094;11.900;2022-09-09T11:18:01;96003.88;;;28.07;46.61
11621;BME280;5866;49.094;11.900;2022-09-09T11:20:29;95999.94;;;28.48;45.49
11621;BME280;5866;49.094;11.900;2022-09-09T11:22:59;95995.78;;;28.56;44.74
11621;BME280;5866;49.094;11.900;2022-09-09T11:25:32;96001.16;;;28.17;46.44
11621;BME280;5866;49.094;11.900;2022-09-09T11:28:14;96001.91;;;28.33;44.71
11621;BME280;5866;49.094;11.900;2022-09-09T11:30:52;96007.41;;;26.92;48.33
11621;BME280;5866;49.094;11.900;2022-09-09T11:33:41;96001.47;;;27.10;49.08
11621;BME280;5866;49.094;11.900;2022-09-09T11:36:35;95990.19;;;26.61;50.87
11621;BME280;5866;49.094;11.900;2022-09-09T11:42:18;96003.31;;;24.75;52.43
11621;BME280;5866;49.094;11.900;2022-09-09T11:44:47;96003.81;;;24.99;50.40
11621;BME280;5866;49.094;11.900;2022-09-09T11:47:21;96005.44;;;24.73;55.11
11621;BME280;5866;49.094;11.900;2022-09-09T11:49:51;96002.53;;;25.38;52.89
11621;BME280;5866;49.094;11.900;2022-09-09T11:52:22;95990.47;;;25.24;50.48
11621;BME280;5866;49.094;11.900;2022-09-09T11:54:54;96006.59;;;25.04;51.88
11621;BME280;5866;49.094;11.900;2022-09-09T11:57:32;95997.34;;;25.37;54.70
11621;BME280;5866;49.094;11.900;2022-09-09T12:00:03;96002.63;;;25.48;53.33
11621;BME280;5866;49.094;11.900;2022-09-09T12:02:31;95989.56;;;25.87;51.42
11621;BME280;5866;49.094;11.900;2022-09-09T12:05:02;95992.41;;;25.60;53.16
11621;BME280;5866;49.094;11.900;2022-09-09T12:07:35;95994.13;;;25.08;53.96
11621;BME280;5866;49.094;11.900;2022-09-09T12:10:20;95992.63;;;24.20;58.89
11621;BME280;5866;49.094;11.900;2022-09-09T12:12:50;95999.84;;;24.80;59.28
11621;BME280;5866;49.094;11.900;2022-09-09T12:15:23;95998.91;;;24.96;52.95
11621;BME280;5866;49.094;11.900;2022-09-09T12:17:53;95995.94;;;24.97;53.39
11621;BME280;5866;49.094;11.900;2022-09-09T12:20:32;95986.38;;;25.21;52.47
11621;BME280;5866;49.094;11.900;2022-09-09T12:23:14;95999.66;;;25.18;53.53
11621;BME280;5866;49.094;11.900;2022-09-09T12:25:56;96000.72;;;25.17;59.58
11621;BME280;5866;49.094;11.900;2022-09-09T12:28:37;95992.38;;;24.92;57.37
11621;BME280;5866;49.094;11.900;2022-09-09T12:31:12;95985.56;;;25.21;59.44
11621;BME280;5866;49.094;11.900;2022-09-09T12:33:45;95986.84;;;25.45;58.58
11621;BME280;5866;49.094;11.900;2022-09-09T12:36:15;95981.91;;;24.79;60.60
11621;BME280;5866;49.094;11.900;2022-09-09T12:38:44;95976.84;;;24.39;62.25
11621;BME280;5866;49.094;11.900;2022-09-09T12:41:20;95977.19;;;24.96;61.46
11621;BME280;5866;49.094;11.900;2022-09-09T12:43:49;95967.25;;;25.38;58.91
11621;BME280;5866;49.094;11.900;2022-09-09T12:46:31;95965.13;;;25.45;58.59
11621;BME280;5866;49.094;11.900;2022-09-09T12:49:03;95966.47;;;25.89;57.44
11621;BME280;5866;49.094;11.900;2022-09-09T12:51:32;95965.03;;;25.72;54.60
11621;BME280;5866;49.094;11.900;2022-09-09T12:54:00;95967.06;;;25.50;54.16
11621;BME280;5866;49.094;11.900;2022-09-09T12:56:29;95956.34;;;25.70;53.25
11621;BME280;5866;49.094;11.900;2022-09-09T12:58:59;95965.84;;;25.36;53.29
11621;BME280;5866;49.094;11.900;2022-09-09T13:01:29;95964.63;;;25.48;53.70
11621;BME280;5866;49.094;11.900;2022-09-09T13:03:57;95959.19;;;26.67;47.61
11621;BME280;5866;49.094;11.900;2022-09-09T13:06:27;95954.06;;;26.86;47.56
11621;BME280;5866;49.094;11.900;2022-09-09T13:08:57;95937.47;;;27.32;46.01
11621;BME280;5866;49.094;11.900;2022-09-09T13:11:29;95946.19;;;26.94;47.08
11621;BME280;5866;49.094;11.900;2022-09-09T13:13:59;95928.78;;;27.20;45.68
11621;BME280;5866;49.094;11.900;2022-09-09T13:16:28;95920.03;;;26.98;49.23
11621;BME280;5866;49.094;11.900;2022-09-09T13:18:59;95914.59;;;26.73;51.61
11621;BME280;5866;49.094;11.900;2022-09-09T13:21:32;95910.53;;;26.96;49.16